TimeCDT,TemperatureF,Dew PointF,Humidity,Sea Level PressureIn,VisibilityMPH,Wind Direction,Wind SpeedMPH,Gust SpeedMPH,PrecipitationIn,Events,Conditions,WindDirDegrees,DateUTC
12:51 AM,75.9,75.0,97,30.07,10.0,NW,3.5,-,N/A,,Clear,310,2013-06-21 05:51:00
1:51 AM,78.1,75.9,93,30.06,10.0,NNW,3.5,-,N/A,,Clear,330,2013-06-21 06:51:00
2:51 AM,79.0,75.9,90,30.05,10.0,ENE,3.5,-,N/A,,Clear,70,2013-06-21 07:51:00
3:51 AM,79.0,75.9,90,30.06,10.0,Calm,Calm,-,N/A,,Clear,0,2013-06-21 08:51:00
4:51 AM,78.1,75.0,90,30.06,10.0,Calm,Calm,-,N/A,,Clear,0,2013-06-21 09:51:00
5:51 AM,78.1,75.9,93,30.06,10.0,Calm,Calm,-,N/A,,Clear,0,2013-06-21 10:51:00
6:51 AM,80.1,75.9,87,30.08,10.0,Calm,Calm,-,N/A,,Clear,0,2013-06-21 11:51:00
7:51 AM,82.0,75.9,82,30.09,10.0,Calm,Calm,-,N/A,,Clear,0,2013-06-21 12:51:00
8:51 AM,84.0,75.9,76,30.11,10.0,Variable,3.5,-,N/A,,Clear,0,2013-06-21 13:51:00
9:51 AM,84.0,75.9,76,30.11,10.0,NNE,4.6,-,N/A,,Clear,30,2013-06-21 14:51:00
10:51 AM,84.9,75.9,74,30.12,10.0,NNE,5.8,-,N/A,,Clear,30,2013-06-21 15:51:00
11:51 AM,87.1,75.0,67,30.12,10.0,Variable,4.6,-,N/A,,Clear,0,2013-06-21 16:51:00
12:51 PM,87.1,75.0,67,30.12,10.0,Variable,4.6,-,N/A,,Clear,0,2013-06-21 17:51:00
1:51 PM,87.1,75.9,69,30.12,10.0,ENE,5.8,-,N/A,,Partly Cloudy,60,2013-06-21 18:51:00
2:51 PM,87.1,73.9,65,30.10,10.0,ENE,8.1,-,N/A,,Clear,70,2013-06-21 19:51:00
3:51 PM,86.0,73.0,65,30.08,10.0,ENE,6.9,-,N/A,,Clear,70,2013-06-21 20:51:00
4:12 PM,87.8,73.4,62,30.08,10.0,East,5.8,-,N/A,,Partly Cloudy,80,2013-06-21 21:12:00
4:51 PM,86.0,73.0,65,30.07,10.0,East,5.8,-,N/A,,Clear,80,2013-06-21 21:51:00
5:51 PM,86.0,73.0,65,30.07,10.0,East,4.6,-,N/A,,Clear,80,2013-06-21 22:51:00
6:43 PM,84.2,73.4,70,30.06,10.0,ENE,3.5,-,N/A,,Partly Cloudy,70,2013-06-21 23:43:00
6:51 PM,84.0,73.0,69,30.06,10.0,ENE,4.6,-,N/A,,Partly Cloudy,70,2013-06-21 23:51:00
7:51 PM,82.9,73.0,72,30.07,10.0,ENE,3.5,-,N/A,,Clear,70,2013-06-22 00:51:00
8:51 PM,82.0,73.9,76,30.06,10.0,Calm,Calm,-,N/A,,Clear,0,2013-06-22 01:51:00
9:51 PM,81.0,75.0,82,30.08,10.0,ENE,3.5,-,N/A,,Clear,70,2013-06-22 02:51:00
10:51 PM,80.1,75.0,85,30.08,10.0,Calm,Calm,-,N/A,,Clear,0,2013-06-22 03:51:00
11:51 PM,80.1,75.9,87,30.07,10.0,Calm,Calm,-,N/A,,Clear,0,2013-06-22 04:51:00